sensor_id;sensor_type;location;lat;lon;timestamp;P1;durP1;ratioP1;P2;durP2;ratioP2
59846;SDS011;45728;48.788;2.302;2022-10-31T00:00:21;5.75;;;4.10;;
59846;SDS011;45728;48.788;2.302;2022-10-31T00:02:48;7.00;;;4.10;;
59846;SDS011;45728;48.788;2.302;2022-10-31T00:05:14;6.03;;;4.13;;
59846;SDS011;45728;48.788;2.302;2022-10-31T00:07:40;5.57;;;3.80;;
59846;SDS011;45728;48.788;2.302;2022-10-31T00:10:06;4.75;;;3.72;;
59846;SDS011;45728;48.788;2.302;2022-10-31T00:12:33;5.57;;;4.00;;
59846;SDS011;45728;48.788;2.302;2022-10-31T00:14:59;6.25;;;4.18;;
59846;SDS011;45728;48.788;2.302;2022-10-31T00:17:25;5.80;;;4.00;;
59846;SDS011;45728;48.788;2.302;2022-10-31T00:19:51;8.35;;;4.32;;
59846;SDS011;45728;48.788;2.302;2022-10-31T00:22:17;6.53;;;4.28;;
59846;SDS011;45728;48.788;2.302;2022-10-31T00:24:43;6.75;;;4.38;;
59846;SDS011;45728;48.788;2.302;2022-10-31T00:27:09;4.63;;;4.10;;
59846;SDS011;45728;48.788;2.302;2022-10-31T00:29:35;6.28;;;4.40;;
59846;SDS011;45728;48.788;2.302;2022-10-31T00:32:01;6.60;;;4.00;;
59846;SDS011;45728;48.788;2.302;2022-10-31T00:34:27;5.28;;;4.18;;
59846;SDS011;45728;48.788;2.302;2022-10-31T00:36:53;4.63;;;3.75;;
59846;SDS011;45728;48.788;2.302;2022-10-31T00:39:19;7.97;;;4.18;;
59846;SDS011;45728;48.788;2.302;2022-10-31T00:41:45;6.53;;;4.10;;
59846;SDS011;45728;48.788;2.302;2022-10-31T00:44:11;4.90;;;4.18;;
59846;SDS011;45728;48.788;2.302;2022-10-31T00:46:37;6.60;;;4.40;;
59846;SDS011;45728;48.788;2.302;2022-10-31T00:49:03;5.55;;;4.20;;
59846;SDS011;45728;48.788;2.302;2022-10-31T00:51:29;7.05;;;4.32;;
59846;SDS011;45728;48.788;2.302;2022-10-31T00:53:55;5.72;;;4.32;;
59846;SDS011;45728;48.788;2.302;2022-10-31T00:56:21;4.32;;;3.92;;
59846;SDS011;45728;48.788;2.302;2022-10-31T00:58:47;7.40;;;5.03;;
59846;SDS011;45728;48.788;2.302;2022-10-31T01:01:13;8.07;;;4.82;;
59846;SDS011;45728;48.788;2.302;2022-10-31T01:03:39;5.68;;;4.57;;
59846;SDS011;45728;48.788;2.302;2022-10-31T01:06:06;6.45;;;4.10;;
59846;SDS011;45728;48.788;2.302;2022-10-31T01:08:35;6.15;;;4.20;;
59846;SDS011;45728;48.788;2.302;2022-10-31T01:13:49;5.47;;;3.80;;
59846;SDS011;45728;48.788;2.302;2022-10-31T01:16:17;4.68;;;4.22;;
59846;SDS011;45728;48.788;2.302;2022-10-31T01:18:44;5.85;;;4.10;;
59846;SDS011;45728;48.788;2.302;2022-10-31T01:21:12;5.55;;;3.78;;
59846;SDS011;45728;48.788;2.302;2022-10-31T01:23:40;5.55;;;3.67;;
59846;SDS011;45728;48.788;2.302;2022-10-31T01:28:46;4.82;;;3.90;;
59846;SDS011;45728;48.788;2.302;2022-10-31T01:31:14;5.95;;;4.13;;
59846;SDS011;45728;48.788;2.302;2022-10-31T01:33:41;5.15;;;4.03;;
59846;SDS011;45728;48.788;2.302;2022-10-31T01:36:11;7.82;;;4.47;;
59846;SDS011;45728;48.788;2.302;2022-10-31T01:38:45;5.10;;;3.92;;
59846;SDS011;45728;48.788;2.302;2022-10-31T01:41:14;5.25;;;4.13;;
59846;SDS011;45728;48.788;2.302;2022-10-31T01:46:11;5.25;;;4.07;;
59846;SDS011;45728;48.788;2.302;2022-10-31T01:48:38;4.93;;;4.07;;
59846;SDS011;45728;48.788;2.302;2022-10-31T01:51:06;5.93;;;3.80;;
59846;SDS011;45728;48.788;2.302;2022-10-31T01:53:34;5.13;;;3.58;;
59846;SDS011;45728;48.788;2.302;2022-10-31T01:56:01;6.00;;;3.80;;
59846;SDS011;45728;48.788;2.302;2022-10-31T01:58:28;6.43;;;4.28;;
59846;SDS011;45728;48.788;2.302;2022-10-31T02:00:57;5.50;;;3.83;;
59846;SDS011;45728;48.788;2.302;2022-10-31T02:03:25;5.55;;;3.50;;
59846;SDS011;45728;48.788;2.302;2022-10-31T02:05:54;5.53;;;3.65;;
59846;SDS011;45728;48.788;2.302;2022-10-31T02:08:28;8.00;;;4.10;;
59846;SDS011;45728;48.788;2.302;2022-10-31T02:10:56;6.13;;;3.70;;
59846;SDS011;45728;48.788;2.302;2022-10-31T02:13:25;7.32;;;4.10;;
59846;SDS011;45728;48.788;2.302;2022-10-31T02:15:54;4.93;;;3.55;;
59846;SDS011;45728;48.788;2.302;2022-10-31T02:18:22;5.93;;;3.83;;
59846;SDS011;45728;48.788;2.302;2022-10-31T02:21:02;7.45;;;4.03;;
59846;SDS011;45728;48.788;2.302;2022-10-31T02:37:39;5.75;;;3.80;;
59846;SDS011;45728;48.788;2.302;2022-10-31T02:40:10;4.75;;;3.58;;
59846;SDS011;45728;48.788;2.302;2022-10-31T02:42:48;4.65;;;3.72;;
59846;SDS011;45728;48.788;2.302;2022-10-31T02:45:31;4.82;;;3.60;;
59846;SDS011;45728;48.788;2.302;2022-10-31T02:48:08;5.18;;;3.63;;
59846;SDS011;45728;48.788;2.302;2022-10-31T02:50:37;6.15;;;3.90;;
59846;SDS011;45728;48.788;2.302;2022-10-31T02:53:07;4.53;;;3.67;;
59846;SDS011;45728;48.788;2.302;2022-10-31T02:58:01;4.93;;;3.45;;
59846;SDS011;45728;48.788;2.302;2022-10-31T03:00:37;4.35;;;3.25;;
59846;SDS011;45728;48.788;2.302;2022-10-31T03:03:36;5.35;;;3.38;;
59846;SDS011;45728;48.788;2.302;2022-10-31T03:17:24;6.30;;;3.83;;
59846;SDS011;45728;48.788;2.302;2022-10-31T03:20:12;3.55;;;3.25;;
59846;SDS011;45728;48.788;2.302;2022-10-31T03:22:39;8.95;;;4.03;;
59846;SDS011;45728;48.788;2.302;2022-10-31T03:25:08;4.78;;;3.45;;
59846;SDS011;45728;48.788;2.302;2022-10-31T03:27:35;5.43;;;3.55;;
59846;SDS011;45728;48.788;2.302;2022-10-31T03:30:04;3.95;;;3.35;;
59846;SDS011;45728;48.788;2.302;2022-10-31T03:32:43;7.18;;;4.40;;
59846;SDS011;45728;48.788;2.302;2022-10-31T03:35:15;5.80;;;3.78;;
59846;SDS011;45728;48.788;2.302;2022-10-31T03:37:45;5.40;;;4.03;;
59846;SDS011;45728;48.788;2.302;2022-10-31T03:40:13;5.40;;;3.22;;
59846;SDS011;45728;48.788;2.302;2022-10-31T03:42:42;7.05;;;3.65;;
59846;SDS011;45728;48.788;2.302;2022-10-31T03:45:17;5.10;;;3.67;;
59846;SDS011;45728;48.788;2.302;2022-10-31T03:47:49;5.72;;;3.55;;
59846;SDS011;45728;48.788;2.302;2022-10-31T03:50:16;5.38;;;3.95;;
59846;SDS011;45728;48.788;2.302;2022-10-31T03:52:52;3.80;;;3.40;;
59846;SDS011;45728;48.788;2.302;2022-10-31T03:55:39;7.53;;;3.67;;
59846;SDS011;45728;48.788;2.302;2022-10-31T04:00:50;4.88;;;3.90;;
59846;SDS011;45728;48.788;2.302;2022-10-31T04:03:19;5.13;;;3.95;;
59846;SDS011;45728;48.788;2.302;2022-10-31T04:05:49;6.03;;;3.92;;
59846;SDS011;45728;48.788;2.302;2022-10-31T04:08:21;6.07;;;4.10;;
59846;SDS011;45728;48.788;2.302;2022-10-31T04:10:51;4.53;;;3.97;;
59846;SDS011;45728;48.788;2.302;2022-10-31T04:13:21;5.25;;;3.90;;
59846;SDS011;45728;48.788;2.302;2022-10-31T04:15:51;4.72;;;3.95;;
59846;SDS011;45728;48.788;2.302;2022-10-31T04:18:19;5.32;;;3.85;;
59846;SDS011;45728;48.788;2.302;2022-10-31T04:20:46;6.45;;;4.20;;
59846;SDS011;45728;48.788;2.302;2022-10-31T04:23:17;5.07;;;4.00;;
59846;SDS011;45728;48.788;2.302;2022-10-31T04:25:46;5.47;;;4.30;;
59846;SDS011;45728;48.788;2.302;2022-10-31T04:28:12;5.57;;;4.00;;
59846;SDS011;45728;48.788;2.302;2022-10-31T04:30:38;5.57;;;3.70;;
59846;SDS011;45728;48.788;2.302;2022-10-31T04:33:04;6.32;;;4.50;;
59846;SDS011;45728;48.788;2.302;2022-10-31T04:35:30;6.35;;;4.40;;
59846;SDS011;45728;48.788;2.302;2022-10-31T04:37:56;5.80;;;3.90;;
59846;SDS011;45728;48.788;2.302;2022-10-31T04:40:22;5.40;;;4.40;;
59846;SDS011;45728;48.788;2.302;2022-10-31T04:42:48;6.38;;;3.85;;
59846;SDS011;45728;48.788;2.302;2022-10-31T04:45:14;5.72;;;4.07;;
59846;SDS011;45728;48.788;2.302;2022-10-31T04:47:40;5.38;;;3.88;;
59846;SDS011;45728;48.788;2.302;2022-10-31T04:50:06;6.75;;;4.50;;
59846;SDS011;45728;48.788;2.302;2022-10-31T04:52:38;6.10;;;4.70;;
59846;SDS011;45728;48.788;2.302;2022-10-31T04:55:08;8.25;;;4.80;;
59846;SDS011;45728;48.788;2.302;2022-10-31T04:57:41;4.95;;;4.40;;
59846;SDS011;45728;48.788;2.302;2022-10-31T05:00:12;7.93;;;4.32;;
59846;SDS011;45728;48.788;2.302;2022-10-31T05:02:46;5.00;;;4.60;;
59846;SDS011;45728;48.788;2.302;2022-10-31T05:05:14;6.93;;;4.35;;
59846;SDS011;45728;48.788;2.302;2022-10-31T05:07:41;5.95;;;4.50;;
59846;SDS011;45728;48.788;2.302;2022-10-31T05:10:09;6.93;;;4.88;;
59846;SDS011;45728;48.788;2.302;2022-10-31T05:12:37;5.55;;;3.97;;
59846;SDS011;45728;48.788;2.302;2022-10-31T05:15:04;5.32;;;4.20;;
59846;SDS011;45728;48.788;2.302;2022-10-31T05:17:31;7.53;;;4.85;;
59846;SDS011;45728;48.788;2.302;2022-10-31T05:19:57;7.10;;;4.70;;
59846;SDS011;45728;48.788;2.302;2022-10-31T05:22:23;7.18;;;4.70;;
59846;SDS011;45728;48.788;2.302;2022-10-31T05:24:49;6.75;;;4.22;;
59846;SDS011;45728;48.788;2.302;2022-10-31T05:27:15;7.20;;;4.63;;
59846;SDS011;45728;48.788;2.302;2022-10-31T05:29:41;6.78;;;5.10;;
59846;SDS011;45728;48.788;2.302;2022-10-31T05:32:07;5.80;;;4.93;;
59846;SDS011;45728;48.788;2.302;2022-10-31T05:34:33;6.82;;;5.22;;
59846;SDS011;45728;48.788;2.302;2022-10-31T05:36:59;6.90;;;5.30;;
59846;SDS011;45728;48.788;2.302;2022-10-31T05:39:25;8.15;;;6.28;;
59846;SDS011;45728;48.788;2.302;2022-10-31T05:41:51;7.18;;;5.63;;
59846;SDS011;45728;48.788;2.302;2022-10-31T05:44:17;7.53;;;5.82;;
59846;SDS011;45728;48.788;2.302;2022-10-31T05:49:30;8.43;;;6.50;;
59846;SDS011;45728;48.788;2.302;2022-10-31T05:51:56;7.68;;;5.85;;
59846;SDS011;45728;48.788;2.302;2022-10-31T05:54:22;8.60;;;6.20;;
59846;SDS011;45728;48.788;2.302;2022-10-31T05:56:48;10.50;;;6.50;;
59846;SDS011;45728;48.788;2.302;2022-10-31T05:59:14;9.98;;;7.03;;
59846;SDS011;45728;48.788;2.302;2022-10-31T06:01:40;6.85;;;6.15;;
59846;SDS011;45728;48.788;2.302;2022-10-31T06:04:06;7.85;;;6.68;;
59846;SDS011;45728;48.788;2.302;2022-10-31T06:06:32;9.20;;;6.93;;
59846;SDS011;45728;48.788;2.302;2022-10-31T06:08:58;7.75;;;6.90;;
59846;SDS011;45728;48.788;2.302;2022-10-31T06:11:24;10.40;;;7.20;;
59846;SDS011;45728;48.788;2.302;2022-10-31T06:13:50;8.65;;;6.43;;
59846;SDS011;45728;48.788;2.302;2022-10-31T06:16:16;8.05;;;6.32;;
59846;SDS011;45728;48.788;2.302;2022-10-31T06:18:43;10.85;;;7.50;;
59846;SDS011;45728;48.788;2.302;2022-10-31T06:21:09;8.73;;;6.93;;
59846;SDS011;45728;48.788;2.302;2022-10-31T06:23:35;11.25;;;7.80;;
59846;SDS011;45728;48.788;2.302;2022-10-31T06:26:01;10.27;;;8.27;;
59846;SDS011;45728;48.788;2.302;2022-10-31T06:28:27;10.70;;;7.95;;
59846;SDS011;45728;48.788;2.302;2022-10-31T06:30:53;10.10;;;7.68;;
59846;SDS011;45728;48.788;2.302;2022-10-31T06:33:19;10.77;;;7.43;;
59846;SDS011;45728;48.788;2.302;2022-10-31T06:35:45;13.07;;;8.82;;
59846;SDS011;45728;48.788;2.302;2022-10-31T06:38:12;12.68;;;8.30;;
59846;SDS011;45728;48.788;2.302;2022-10-31T06:40:39;10.02;;;8.63;;
59846;SDS011;45728;48.788;2.302;2022-10-31T06:43:05;10.60;;;8.52;;
59846;SDS011;45728;48.788;2.302;2022-10-31T06:45:31;10.95;;;8.68;;
59846;SDS011;45728;48.788;2.302;2022-10-31T06:47:57;11.68;;;8.48;;
59846;SDS011;45728;48.788;2.302;2022-10-31T06:50:23;13.35;;;8.73;;
59846;SDS011;45728;48.788;2.302;2022-10-31T06:52:52;11.48;;;8.27;;
59846;SDS011;45728;48.788;2.302;2022-10-31T06:55:23;12.73;;;9.00;;
59846;SDS011;45728;48.788;2.302;2022-10-31T06:57:53;13.18;;;9.18;;
59846;SDS011;45728;48.788;2.302;2022-10-31T07:00:23;11.55;;;8.63;;
59846;SDS011;45728;48.788;2.302;2022-10-31T07:02:54;13.98;;;8.82;;
59846;SDS011;45728;48.788;2.302;2022-10-31T07:05:28;11.10;;;8.55;;
59846;SDS011;45728;48.788;2.302;2022-10-31T07:07:59;10.98;;;8.57;;
59846;SDS011;45728;48.788;2.302;2022-10-31T07:10:27;14.38;;;10.38;;
59846;SDS011;45728;48.788;2.302;2022-10-31T07:12:55;12.45;;;10.00;;
59846;SDS011;45728;48.788;2.302;2022-10-31T07:15:23;17.98;;;10.15;;
59846;SDS011;45728;48.788;2.302;2022-10-31T07:17:49;23.38;;;10.18;;
59846;SDS011;45728;48.788;2.302;2022-10-31T07:20:16;13.25;;;9.13;;
59846;SDS011;45728;48.788;2.302;2022-10-31T07:22:42;11.95;;;8.60;;
59846;SDS011;45728;48.788;2.302;2022-10-31T07:25:08;11.55;;;8.40;;
59846;SDS011;45728;48.788;2.302;2022-10-31T07:27:38;13.07;;;8.55;;
59846;SDS011;45728;48.788;2.302;2022-10-31T07:30:08;13.45;;;8.98;;
59846;SDS011;45728;48.788;2.302;2022-10-31T07:32:41;11.40;;;8.55;;
59846;SDS011;45728;48.788;2.302;2022-10-31T07:35:13;12.23;;;9.13;;
59846;SDS011;45728;48.788;2.302;2022-10-31T07:38:06;13.35;;;8.73;;
59846;SDS011;45728;48.788;2.302;2022-10-31T07:40:34;12.35;;;8.05;;
59846;SDS011;45728;48.788;2.302;2022-10-31T07:43:00;11.57;;;8.23;;
59846;SDS011;45728;48.788;2.302;2022-10-31T07:45:26;9.75;;;8.50;;
59846;SDS011;45728;48.788;2.302;2022-10-31T07:47:52;13.02;;;8.60;;
59846;SDS011;45728;48.788;2.302;2022-10-31T07:50:19;10.85;;;8.80;;
59846;SDS011;45728;48.788;2.302;2022-10-31T07:55:32;11.80;;;8.13;;
59846;SDS011;45728;48.788;2.302;2022-10-31T07:57:59;17.52;;;8.90;;
59846;SDS011;45728;48.788;2.302;2022-10-31T08:00:27;11.32;;;8.27;;
59846;SDS011;45728;48.788;2.302;2022-10-31T08:03:00;12.05;;;8.20;;
59846;SDS011;45728;48.788;2.302;2022-10-31T08:05:29;13.73;;;8.85;;
59846;SDS011;45728;48.788;2.302;2022-10-31T08:07:55;14.07;;;8.68;;
59846;SDS011;45728;48.788;2.302;2022-10-31T08:10:23;13.15;;;9.07;;
59846;SDS011;45728;48.788;2.302;2022-10-31T08:12:56;12.40;;;9.38;;
59846;SDS011;45728;48.788;2.302;2022-10-31T08:15:23;13.55;;;8.70;;
59846;SDS011;45728;48.788;2.302;2022-10-31T08:17:50;18.00;;;9.27;;
59846;SDS011;45728;48.788;2.302;2022-10-31T08:20:16;16.88;;;8.75;;
59846;SDS011;45728;48.788;2.302;2022-10-31T08:22:42;18.02;;;11.65;;
59846;SDS011;45728;48.788;2.302;2022-10-31T08:25:08;12.63;;;8.80;;
59846;SDS011;45728;48.788;2.302;2022-10-31T08:27:34;19.20;;;10.32;;
59846;SDS011;45728;48.788;2.302;2022-10-31T08:30:00;18.98;;;11.40;;
59846;SDS011;45728;48.788;2.302;2022-10-31T08:32:26;18.33;;;11.27;;
59846;SDS011;45728;48.788;2.302;2022-10-31T08:34:52;21.58;;;13.13;;
59846;SDS011;45728;48.788;2.302;2022-10-31T08:37:19;21.65;;;12.80;;
59846;SDS011;45728;48.788;2.302;2022-10-31T08:39:46;24.25;;;14.02;;
59846;SDS011;45728;48.788;2.302;2022-10-31T08:42:12;20.65;;;13.68;;
59846;SDS011;45728;48.788;2.302;2022-10-31T08:44:38;18.60;;;13.20;;
59846;SDS011;45728;48.788;2.302;2022-10-31T08:47:05;22.75;;;13.35;;
59846;SDS011;45728;48.788;2.302;2022-10-31T08:49:31;18.60;;;13.90;;
59846;SDS011;45728;48.788;2.302;2022-10-31T08:51:57;25.00;;;14.38;;
59846;SDS011;45728;48.788;2.302;2022-10-31T08:54:23;25.85;;;14.70;;
59846;SDS011;45728;48.788;2.302;2022-10-31T08:56:53;24.58;;;14.75;;
59846;SDS011;45728;48.788;2.302;2022-10-31T08:59:20;19.85;;;13.05;;
59846;SDS011;45728;48.788;2.302;2022-10-31T09:01:46;18.60;;;12.82;;
59846;SDS011;45728;48.788;2.302;2022-10-31T09:04:12;26.48;;;15.02;;
59846;SDS011;45728;48.788;2.302;2022-10-31T09:06:39;25.83;;;13.68;;
59846;SDS011;45728;48.788;2.302;2022-10-31T09:09:06;23.85;;;14.18;;
59846;SDS011;45728;48.788;2.302;2022-10-31T09:11:33;24.52;;;15.13;;
59846;SDS011;45728;48.788;2.302;2022-10-31T09:13:59;24.85;;;14.93;;
59846;SDS011;45728;48.788;2.302;2022-10-31T09:16:25;21.95;;;14.57;;
59846;SDS011;45728;48.788;2.302;2022-10-31T09:18:51;24.25;;;13.02;;
59846;SDS011;45728;48.788;2.302;2022-10-31T09:21:17;23.20;;;13.30;;
59846;SDS011;45728;48.788;2.302;2022-10-31T09:23:43;26.40;;;12.77;;
59846;SDS011;45728;48.788;2.302;2022-10-31T09:26:09;20.88;;;12.43;;
59846;SDS011;45728;48.788;2.302;2022-10-31T09:28:35;21.20;;;12.15;;
59846;SDS011;45728;48.788;2.302;2022-10-31T09:31:01;23.00;;;12.77;;
59846;SDS011;45728;48.788;2.302;2022-10-31T09:33:27;19.10;;;11.63;;
59846;SDS011;45728;48.788;2.302;2022-10-31T09:35:53;19.10;;;11.45;;
59846;SDS011;45728;48.788;2.302;2022-10-31T09:38:20;19.70;;;10.65;;
59846;SDS011;45728;48.788;2.302;2022-10-31T09:40:47;18.40;;;10.30;;
59846;SDS011;45728;48.788;2.302;2022-10-31T09:43:23;21.52;;;10.45;;
59846;SDS011;45728;48.788;2.302;2022-10-31T09:46:04;17.58;;;10.38;;
59846;SDS011;45728;48.788;2.302;2022-10-31T09:51:48;19.58;;;10.45;;
59846;SDS011;45728;48.788;2.302;2022-10-31T09:54:27;15.32;;;9.55;;
59846;SDS011;45728;48.788;2.302;2022-10-31T09:57:03;16.83;;;10.13;;
59846;SDS011;45728;48.788;2.302;2022-10-31T09:59:34;16.40;;;10.30;;
59846;SDS011;45728;48.788;2.302;2022-10-31T10:02:04;16.27;;;9.57;;
59846;SDS011;45728;48.788;2.302;2022-10-31T10:10:02;13.68;;;8.48;;
59846;SDS011;45728;48.788;2.302;2022-10-31T10:12:47;21.63;;;10.15;;
59846;SDS011;45728;48.788;2.302;2022-10-31T10:15:36;14.35;;;9.13;;
59846;SDS011;45728;48.788;2.302;2022-10-31T10:23:28;16.40;;;9.50;;
59846;SDS011;45728;48.788;2.302;2022-10-31T10:26:05;16.33;;;9.25;;
59846;SDS011;45728;48.788;2.302;2022-10-31T10:28:38;17.77;;;9.75;;
59846;SDS011;45728;48.788;2.302;2022-10-31T10:31:13;19.67;;;10.18;;
59846;SDS011;45728;48.788;2.302;2022-10-31T10:36:25;18.63;;;9.93;;
59846;SDS011;45728;48.788;2.302;2022-10-31T10:39:03;16.27;;;8.85;;
59846;SDS011;45728;48.788;2.302;2022-10-31T10:41:49;18.90;;;9.30;;
59846;SDS011;45728;48.788;2.302;2022-10-31T10:44:38;19.05;;;9.50;;
59846;SDS011;45728;48.788;2.302;2022-10-31T10:47:28;20.55;;;9.98;;
59846;SDS011;45728;48.788;2.302;2022-10-31T10:50:10;17.50;;;11.13;;
59846;SDS011;45728;48.788;2.302;2022-10-31T10:52:51;21.98;;;10.57;;
59846;SDS011;45728;48.788;2.302;2022-10-31T10:55:41;20.42;;;10.45;;
59846;SDS011;45728;48.788;2.302;2022-10-31T10:58:19;17.15;;;9.38;;
59846;SDS011;45728;48.788;2.302;2022-10-31T11:00:46;19.23;;;10.32;;
59846;SDS011;45728;48.788;2.302;2022-10-31T11:03:13;18.58;;;9.77;;
59846;SDS011;45728;48.788;2.302;2022-10-31T11:05:50;15.43;;;8.75;;
59846;SDS011;45728;48.788;2.302;2022-10-31T11:08:34;13.40;;;7.57;;
59846;SDS011;45728;48.788;2.302;2022-10-31T11:13:57;15.18;;;7.80;;
59846;SDS011;45728;48.788;2.302;2022-10-31T11:16:38;11.20;;;7.07;;
59846;SDS011;45728;48.788;2.302;2022-10-31T11:19:07;13.98;;;7.57;;
59846;SDS011;45728;48.788;2.302;2022-10-31T11:21:44;17.60;;;8.05;;
59846;SDS011;45728;48.788;2.302;2022-10-31T11:26:42;14.18;;;6.85;;
59846;SDS011;45728;48.788;2.302;2022-10-31T11:29:25;16.50;;;7.53;;
59846;SDS011;45728;48.788;2.302;2022-10-31T11:31:52;12.82;;;6.40;;
59846;SDS011;45728;48.788;2.302;2022-10-31T11:34:26;12.40;;;6.40;;
59846;SDS011;45728;48.788;2.302;2022-10-31T11:36:57;11.35;;;6.15;;
59846;SDS011;45728;48.788;2.302;2022-10-31T11:39:34;14.10;;;5.88;;
59846;SDS011;45728;48.788;2.302;2022-10-31T11:42:07;14.45;;;6.78;;
59846;SDS011;45728;48.788;2.302;2022-10-31T11:44:33;15.82;;;6.45;;
59846;SDS011;45728;48.788;2.302;2022-10-31T11:47:03;11.57;;;6.22;;
59846;SDS011;45728;48.788;2.302;2022-10-31T11:49:32;15.52;;;6.63;;
59846;SDS011;45728;48.788;2.302;2022-10-31T11:52:04;15.25;;;6.78;;
59846;SDS011;45728;48.788;2.302;2022-10-31T11:59:58;12.15;;;6.20;;
59846;SDS011;45728;48.788;2.302;2022-10-31T12:02:25;15.65;;;5.97;;
59846;SDS011;45728;48.788;2.302;2022-10-31T12:05:26;13.25;;;6.07;;
59846;SDS011;45728;48.788;2.302;2022-10-31T12:07:47;18.20;;;7.30;;
59846;SDS011;45728;48.788;2.302;2022-10-31T12:10:14;11.07;;;6.28;;
59846;SDS011;45728;48.788;2.302;2022-10-31T12:15:40;15.50;;;6.23;;
59846;SDS011;45728;48.788;2.302;2022-10-31T12:23:32;11.48;;;6.05;;
59846;SDS011;45728;48.788;2.302;2022-10-31T12:28:57;12.63;;;6.07;;
59846;SDS011;45728;48.788;2.302;2022-10-31T12:31:35;14.00;;;6.20;;
59846;SDS011;45728;48.788;2.302;2022-10-31T12:48:22;11.13;;;5.75;;
59846;SDS011;45728;48.788;2.302;2022-10-31T12:53:52;11.27;;;6.18;;
59846;SDS011;45728;48.788;2.302;2022-10-31T12:59:47;13.73;;;7.28;;
59846;SDS011;45728;48.788;2.302;2022-10-31T13:02:19;16.05;;;6.00;;
59846;SDS011;45728;48.788;2.302;2022-10-31T13:05:00;12.27;;;6.05;;
59846;SDS011;45728;48.788;2.302;2022-10-31T13:07:41;14.07;;;6.65;;
59846;SDS011;45728;48.788;2.302;2022-10-31T13:10:17;13.77;;;6.63;;
59846;SDS011;45728;48.788;2.302;2022-10-31T13:12:49;17.75;;;7.03;;
59846;SDS011;45728;48.788;2.302;2022-10-31T13:15:21;14.80;;;6.85;;
59846;SDS011;45728;48.788;2.302;2022-10-31T13:17:58;15.38;;;6.45;;
59846;SDS011;45728;48.788;2.302;2022-10-31T13:20:29;14.43;;;6.63;;
59846;SDS011;45728;48.788;2.302;2022-10-31T13:23:15;13.38;;;6.22;;
59846;SDS011;45728;48.788;2.302;2022-10-31T13:25:50;14.80;;;5.95;;
59846;SDS011;45728;48.788;2.302;2022-10-31T13:31:22;19.15;;;6.72;;
59846;SDS011;45728;48.788;2.302;2022-10-31T13:33:50;10.75;;;5.78;;
59846;SDS011;45728;48.788;2.302;2022-10-31T13:41:48;13.80;;;6.35;;
59846;SDS011;45728;48.788;2.302;2022-10-31T13:44:36;15.82;;;6.85;;
59846;SDS011;45728;48.788;2.302;2022-10-31T13:47:22;11.55;;;6.47;;
59846;SDS011;45728;48.788;2.302;2022-10-31T13:50:03;13.23;;;6.25;;
59846;SDS011;45728;48.788;2.302;2022-10-31T13:52:31;17.63;;;7.03;;
59846;SDS011;45728;48.788;2.302;2022-10-31T13:54:57;21.00;;;6.82;;
59846;SDS011;45728;48.788;2.302;2022-10-31T13:57:38;14.25;;;7.07;;
59846;SDS011;45728;48.788;2.302;2022-10-31T14:02:50;14.85;;;6.85;;
59846;SDS011;45728;48.788;2.302;2022-10-31T14:05:23;17.95;;;6.10;;
59846;SDS011;45728;48.788;2.302;2022-10-31T14:07:51;18.15;;;6.60;;
59846;SDS011;45728;48.788;2.302;2022-10-31T14:10:28;14.00;;;6.63;;
59846;SDS011;45728;48.788;2.302;2022-10-31T14:15:56;14.13;;;6.65;;
59846;SDS011;45728;48.788;2.302;2022-10-31T14:18:31;11.35;;;6.05;;
59846;SDS011;45728;48.788;2.302;2022-10-31T14:23:53;13.05;;;6.85;;
59846;SDS011;45728;48.788;2.302;2022-10-31T14:28:56;14.15;;;6.32;;
59846;SDS011;45728;48.788;2.302;2022-10-31T14:33:53;13.32;;;6.18;;
59846;SDS011;45728;48.788;2.302;2022-10-31T14:39:18;18.77;;;6.90;;
59846;SDS011;45728;48.788;2.302;2022-10-31T14:42:10;14.88;;;6.30;;
59846;SDS011;45728;48.788;2.302;2022-10-31T14:44:51;17.73;;;6.95;;
59846;SDS011;45728;48.788;2.302;2022-10-31T14:50:20;13.65;;;6.28;;
59846;SDS011;45728;48.788;2.302;2022-10-31T14:52:48;14.18;;;6.40;;
59846;SDS011;45728;48.788;2.302;2022-10-31T14:55:17;16.60;;;6.90;;
59846;SDS011;45728;48.788;2.302;2022-10-31T14:57:59;18.65;;;6.60;;
59846;SDS011;45728;48.788;2.302;2022-10-31T15:00:29;14.00;;;6.47;;
59846;SDS011;45728;48.788;2.302;2022-10-31T15:06:14;16.92;;;6.70;;
59846;SDS011;45728;48.788;2.302;2022-10-31T15:09:01;15.02;;;7.05;;
59846;SDS011;45728;48.788;2.302;2022-10-31T15:11:27;11.80;;;5.55;;
59846;SDS011;45728;48.788;2.302;2022-10-31T15:13:57;13.63;;;6.53;;
59846;SDS011;45728;48.788;2.302;2022-10-31T15:16:31;13.27;;;6.50;;
59846;SDS011;45728;48.788;2.302;2022-10-31T15:19:05;19.33;;;6.35;;
59846;SDS011;45728;48.788;2.302;2022-10-31T15:21:33;11.88;;;5.82;;
59846;SDS011;45728;48.788;2.302;2022-10-31T15:24:01;17.10;;;6.78;;
59846;SDS011;45728;48.788;2.302;2022-10-31T15:27:11;17.42;;;6.97;;
59846;SDS011;45728;48.788;2.302;2022-10-31T15:29:19;11.15;;;6.90;;
59846;SDS011;45728;48.788;2.302;2022-10-31T15:32:00;14.70;;;6.20;;
59846;SDS011;45728;48.788;2.302;2022-10-31T15:34:38;9.73;;;6.57;;
59846;SDS011;45728;48.788;2.302;2022-10-31T15:37:12;15.95;;;6.40;;
59846;SDS011;45728;48.788;2.302;2022-10-31T15:39:40;22.63;;;6.97;;
59846;SDS011;45728;48.788;2.302;2022-10-31T15:42:17;12.75;;;6.22;;
59846;SDS011;45728;48.788;2.302;2022-10-31T15:47:34;15.80;;;7.03;;
59846;SDS011;45728;48.788;2.302;2022-10-31T15:50:02;12.75;;;6.53;;
59846;SDS011;45728;48.788;2.302;2022-10-31T15:52:39;14.15;;;6.63;;
59846;SDS011;45728;48.788;2.302;2022-10-31T15:57:39;15.38;;;6.82;;
59846;SDS011;45728;48.788;2.302;2022-10-31T16:00:30;15.15;;;6.35;;
59846;SDS011;45728;48.788;2.302;2022-10-31T16:10:59;14.60;;;6.43;;
59846;SDS011;45728;48.788;2.302;2022-10-31T16:13:30;15.27;;;6.18;;
59846;SDS011;45728;48.788;2.302;2022-10-31T16:15:59;15.75;;;6.57;;
59846;SDS011;45728;48.788;2.302;2022-10-31T16:18:29;14.13;;;5.75;;
59846;SDS011;45728;48.788;2.302;2022-10-31T16:21:00;17.33;;;6.03;;
59846;SDS011;45728;48.788;2.302;2022-10-31T16:23:26;17.20;;;7.15;;
59846;SDS011;45728;48.788;2.302;2022-10-31T16:25:53;12.05;;;5.60;;
59846;SDS011;45728;48.788;2.302;2022-10-31T16:28:21;15.82;;;6.43;;
59846;SDS011;45728;48.788;2.302;2022-10-31T16:30:50;19.10;;;6.38;;
59846;SDS011;45728;48.788;2.302;2022-10-31T16:33:26;16.67;;;6.47;;
59846;SDS011;45728;48.788;2.302;2022-10-31T16:38:57;12.93;;;6.10;;
59846;SDS011;45728;48.788;2.302;2022-10-31T16:41:23;12.70;;;6.38;;
59846;SDS011;45728;48.788;2.302;2022-10-31T16:43:50;13.93;;;6.80;;
59846;SDS011;45728;48.788;2.302;2022-10-31T16:46:26;17.25;;;6.75;;
59846;SDS011;45728;48.788;2.302;2022-10-31T16:48:53;14.60;;;7.25;;
59846;SDS011;45728;48.788;2.302;2022-10-31T16:51:19;15.27;;;6.03;;
59846;SDS011;45728;48.788;2.302;2022-10-31T16:53:45;13.98;;;7.03;;
59846;SDS011;45728;48.788;2.302;2022-10-31T16:56:18;18.30;;;6.85;;
59846;SDS011;45728;48.788;2.302;2022-10-31T16:58:49;16.85;;;6.38;;
59846;SDS011;45728;48.788;2.302;2022-10-31T17:01:15;13.43;;;6.40;;
59846;SDS011;45728;48.788;2.302;2022-10-31T17:03:41;18.73;;;7.05;;
59846;SDS011;45728;48.788;2.302;2022-10-31T17:06:11;17.70;;;7.63;;
59846;SDS011;45728;48.788;2.302;2022-10-31T17:08:38;16.13;;;7.05;;
59846;SDS011;45728;48.788;2.302;2022-10-31T17:11:05;16.65;;;7.07;;
59846;SDS011;45728;48.788;2.302;2022-10-31T17:13:34;15.45;;;7.13;;
59846;SDS011;45728;48.788;2.302;2022-10-31T17:16:01;15.43;;;7.25;;
59846;SDS011;45728;48.788;2.302;2022-10-31T17:18:27;15.52;;;7.50;;
59846;SDS011;45728;48.788;2.302;2022-10-31T17:20:54;15.10;;;7.82;;
59846;SDS011;45728;48.788;2.302;2022-10-31T17:23:23;19.65;;;8.73;;
59846;SDS011;45728;48.788;2.302;2022-10-31T17:25:49;16.85;;;8.20;;